LGKV/KVA METAR and TAF weather

Enter ICAO airport designator
Station Type Date Time Source
LGKV METAR 2019/12/10 05:50 UTC NOAA

LGKV 100550Z 04007KT 9999 FEW012 SCT020 BKN070 11/08 Q1011


Station Type Date Time Source
LGKV Decoded METAR 2019/12/10 05:50 UTC NOAA

Chrysoupoli Airport , Greece (LGKV) 40-59N 024-36E 5M
Dec 10, 2019 - 12:50 AM EST / 2019.12.10 0550 UTC
Wind: from the NE (040 degrees) at 8 MPH (7 KT):0
Visibility: greater than 7 mile(s):0
Sky conditions: mostly cloudy
Temperature: 51 F (11 C)
Dew Point: 46 F (8 C)
Relative Humidity: 81%
Pressure (altimeter): 29.85 in. Hg (1011 hPa)
ob: LGKV 100550Z 04007KT 9999 FEW012 SCT020 BKN070 11/08 Q1011
cycle: 6

Station Type Date Time Source
LGKV TAF 2019/12/10 06:12 UTC NOAA

TAF LGKV 100500Z 1006/1106 04005KT 9999 FEW010 BKN025 BKN080
TEMPO 1006/1106 6000 RA
BECMG 1014/1016 07015KT PROB40
TEMPO 1100/1106 4000 TSRA SCT010 FEW016CB OVC020

Example: see airport list